• Join FlightAware (Why Join?)
  • Login
  • US Flag 
07:43PM EDT


 

Airport Tracker/Info


-or-


 

Live Flight TrackerFlight Track Log ✈ SKW6252 ✈ 10-May-2013 ✈ KDEN - KDTW

Flight Track Log - Related Links

Times and Time Zones

All times are in EDT time to prevent confusion due to time zone crossing. See the SKW6252 flight status page for this flight to view local times or setup timezone preferences in your user account.

Time Position Orientation Groundspeed Altitude Reporting Facility
EDT Latitude Longitude Course Direction KTS MPH feet Rate Location/Type
12:10PM 39.9500 -104.6167 57° Northeast 233 268 8,100  Level Denver TRACON
12:11PM 39.9500 -104.5167 90° East 283 326 10,000 900 Climbing Denver TRACON
12:12PM 39.9305 -104.2071 73° East  Level FlightAware Approximate
12:12PM 39.9500 -104.4000 90° East 360 414 10,000  Level Denver TRACON
12:13PM 39.9653 -104.0560 73° East  Level FlightAware Approximate
12:13PM 39.9450 -104.3428 96° East 360 414 11,100  Level Denver Center
12:14PM 39.9876 -103.9035 79° East  Level FlightAware Approximate
12:14PM 39.9331 -104.2100 97° East 343 395 14,500  Level Denver Center
12:15PM 40.0188 -103.7519 79° East  Level FlightAware Approximate
12:15PM 39.9486 -104.0892 80° East 343 395 16,700  Level Denver Center
12:16PM 39.9789 -103.9611 73° East 343 395 18,700 1,860 Climbing Denver Center
12:17PM 40.0053 -103.8369 74° East 357 411 20,600 1,680 Climbing Denver Center
12:18PM 40.0322 -103.7058 75° East 351 404 22,200 1,380 Climbing Denver Center
12:19PM 40.0522 -103.5772 78° East 374 430 23,500 1,500 Climbing Denver Center
12:20PM 40.0772 -103.4236 78° East 387 445 25,400 1,320 Climbing Denver Center
12:21PM 40.0947 -103.3131 78° East 391 450 26,300 1,140 Climbing Denver Center
12:22PM 40.1242 -103.1311 78° East 401 461 27,800 1,260 Climbing Denver Center
12:23PM 40.1469 -102.9917 78° East 407 468 29,000 1,200 Climbing Denver Center
12:24PM 40.1719 -102.8269 79° East 413 475 30,300 840 Climbing Denver Center
12:25PM 40.1906 -102.7075 78° East 419 482 30,800 660 Climbing Denver Center
12:26PM 40.2208 -102.5094 79° East 436 502 31,700 900 Climbing Denver Center
12:27PM 40.2444 -102.3586 78° East 442 509 32,700 600 Climbing Denver Center
12:28PM 40.2719 -102.1842 78° East 439 505 33,000 120 Climbing Denver Center
12:29PM 40.2936 -102.0325 79° East 442 509 33,000  Level Denver Center
12:30PM 40.3203 -101.8556 79° East 444 511 33,000  Level Denver Center
12:31PM 40.3431 -101.7047 79° East 442 509 33,000  Level Denver Center
12:33PM 40.3672 -101.5292 80° East 440 506 33,000  Level Denver Center
12:34PM 40.3964 -101.3558 77° East 436 502 33,000  Level Denver Center
12:35PM 40.4350 -101.1600 75° East 435 501 33,000  Level Denver Center
12:36PM 40.4681 -100.9894 76° East 435 501 33,000  Level Denver Center
12:37PM 40.4956 -100.8433 76° East 434 499 33,000  Level Denver Center
12:38PM 40.5278 -100.6711 76° East 438 504 33,000  Level Denver Center
12:39PM 40.5564 -100.5242 76° East 438 504 33,000  Level Denver Center
12:40PM 40.5886 -100.3508 76° East 440 506 33,000  Level Denver Center
12:41PM 40.6156 -100.2008 77° East 441 507 33,000  Level Denver Center
12:42PM 40.6486 -100.0278 76° East 438 504 33,000  Level Denver Center
12:43PM 40.6753 -99.8803 77° East 436 502 33,000  Level Denver Center
12:44PM 40.7106 -99.6864 76° East 436 502 33,000  Level Denver Center
12:46PM 40.7383 -99.5311 77° East 435 501 33,000  Level Denver Center
12:47PM 40.7656 -99.3758 77° East 434 499 33,000  Level Denver Center
12:48PM 40.7931 -99.2217 77° East 434 499 33,000  Level Denver Center
12:49PM 40.8189 -99.0703 77° East 436 502 33,000  Level Minneapolis Center
12:50PM 40.8453 -98.9122 78° East 439 505 33,000  Level Minneapolis Center
12:51PM 40.8778 -98.7225 77° East 440 506 33,000  Level Minneapolis Center
12:52PM 40.9056 -98.5611 77° East 447 514 33,000  Level Minneapolis Center
12:53PM 40.9325 -98.4044 77° East 449 517 33,000  Level Minneapolis Center
12:54PM 40.9589 -98.2433 78° East 450 518 33,000  Level Minneapolis Center
12:55PM 40.9908 -98.0492 78° East 452 520 33,000  Level Minneapolis Center
12:56PM 41.0233 -97.8872 75° East 455 524 33,000  Level Minneapolis Center
12:57PM 41.0611 -97.7267 73° East 456 525 33,000  Level Minneapolis Center
12:58PM 41.0978 -97.5661 73° East 458 527 33,000  Level Minneapolis Center
12:59PM 41.1333 -97.4050 74° East 456 525 33,000  Level Minneapolis Center
01:00PM 41.1706 -97.2408 73° East 452 520 33,000  Level Minneapolis Center
01:01PM 41.2050 -97.0819 74° East 449 517 33,000  Level Minneapolis Center
01:02PM 41.2394 -96.9256 74° East 443 510 33,000  Level Minneapolis Center
01:03PM 41.2806 -96.7353 74° East 446 513 33,000  Level Minneapolis Center
01:04PM 41.3144 -96.5753 74° East 449 517 33,000  Level Minneapolis Center
01:05PM 41.3506 -96.4133 73° East 455 524 33,000  Level Minneapolis Center
01:06PM 41.3819 -96.2572 75° East 455 524 33,000  Level Minneapolis Center
01:07PM 41.4175 -96.0953 74° East 456 525 33,000  Level Minneapolis Center
01:08PM 41.4586 -95.8967 74° East 461 531 33,000  Level Minneapolis Center
01:09PM 41.4922 -95.7308 75° East 463 533 33,000  Level Minneapolis Center
01:10PM 41.5233 -95.5769 75° East 465 535 33,000  Level Minneapolis Center
01:11PM 41.5583 -95.4094 74° East 467 537 33,000  Level Minneapolis Center
01:12PM 41.6092 -95.2128 71° East 468 539 33,000  Level Minneapolis Center
01:13PM 41.6506 -95.0478 71° East 468 539 33,000  Level Minneapolis Center
01:14PM 41.6914 -94.8833 72° East 467 537 33,000  Level Minneapolis Center
01:15PM 41.7331 -94.7172 71° East 471 542 33,000  Level Minneapolis Center
01:16PM 41.7753 -94.5514 71° East 471 542 33,000  Level Minneapolis Center
01:18PM 41.8158 -94.3842 72° East 473 544 33,000  Level Minneapolis Center
01:19PM 41.8647 -94.1833 72° East 474 545 33,000  Level Minneapolis Center
01:20PM 41.9047 -94.0150 72° East 474 545 33,000  Level Minneapolis Center
01:21PM 41.9419 -93.8631 72° East 475 547 33,000  Level Minneapolis Center
01:22PM 41.9836 -93.6881 72° East 478 550 33,000  Level Minneapolis Center
01:23PM 42.0314 -93.4856 72° East 477 549 33,000  Level Minneapolis Center
01:24PM 42.0706 -93.3175 73° East 477 549 33,000  Level Minneapolis Center
01:25PM 42.1106 -93.1483 72° East 478 550 33,000  Level Minneapolis Center
01:26PM 42.1494 -92.9772 73° East 481 554 33,000  Level Minneapolis Center
01:27PM 42.1883 -92.8081 73° East 478 550 33,000  Level Minneapolis Center
01:28PM 42.2356 -92.6033 73° East 480 552 33,000  Level Minneapolis Center
01:29PM 42.2736 -92.4336 73° East 478 550 33,000  Level Minneapolis Center
01:30PM 42.3117 -92.2628 73° East 479 551 33,000  Level Minneapolis Center
01:31PM 42.3494 -92.0919 73° East 480 552 33,000  Level Minneapolis Center
01:31PM 42.3719 -91.9883 74° East 483 556 33,000  Level Chicago Center
01:33PM 42.4094 -91.8194 73° East 479 551 33,000  Level Chicago Center
01:34PM 42.4456 -91.6497 74° East 480 552 33,000  Level Chicago Center
01:35PM 42.4897 -91.4492 73° East 475 547 33,000  Level Chicago Center
01:36PM 42.5253 -91.2806 74° East 475 547 33,000  Level Chicago Center
01:37PM 42.5606 -91.1128 74° East 473 544 33,000  Level Chicago Center
01:38PM 42.5967 -90.9425 74° East 476 548 33,000  Level Chicago Center
01:39PM 42.6386 -90.7381 74° East 476 548 33,000  Level Chicago Center
01:40PM 42.6747 -90.5681 74° East 476 548 33,000  Level Chicago Center
01:41PM 42.7086 -90.3983 75° East 474 545 33,000  Level Chicago Center
01:42PM 42.7422 -90.2269 75° East 474 545 33,000  Level Chicago Center
01:43PM 42.7772 -90.0553 74° East 475 547 33,000  Level Chicago Center
01:44PM 42.8136 -89.8714 75° East 470 541 33,000  Level Chicago Center
01:45PM 42.8539 -89.6694 75° East 474 545 33,000  Level Chicago Center
01:46PM 42.8869 -89.4967 75° East 473 544 33,000  Level Chicago Center
01:47PM 42.9208 -89.3225 75° East 475 547 33,000  Level Chicago Center
01:48PM 42.9550 -89.1464 75° East 481 554 33,000  Level Chicago Center
01:49PM 42.9892 -88.9669 75° East 488 562 33,000  Level Chicago Center
01:50PM 43.0286 -88.7544 76° East 495 570 33,000  Level Chicago Center
01:51PM 43.0631 -88.5731 75° East 496 571 33,000  Level Chicago Center
01:52PM 43.0961 -88.3925 76° East 495 570 33,000  Level Chicago Center
01:53PM 43.1261 -88.2108 77° East 494 568 33,000  Level Chicago Center
01:54PM 43.1522 -87.9981 80° East 490 564 33,000  Level Chicago Center
01:55PM 43.1747 -87.8150 80° East 490 564 33,000  Level Chicago Center
01:56PM 43.1964 -87.6325 81° East 488 562 33,000  Level Chicago Center
01:57PM 43.2183 -87.4494 81° East 488 562 33,000  Level Chicago Center
01:58PM 43.2439 -87.2450 80° East 489 563 33,000  Level Chicago Center
01:59PM 43.2653 -87.0614 81° East 489 563 33,000  Level Chicago Center
02:00PM 43.2850 -86.8800 81° East 485 558 33,000  Level Chicago Center
02:01PM 43.3067 -86.6961 81° East 486 559 33,000 -540 Level Chicago Center
02:02PM 43.3264 -86.5147 81° East 482 555 32,000 -960 Descending Chicago Center
02:04PM 43.3475 -86.3300 81° East 486 559 31,100 -540 Descending Chicago Center
02:05PM 43.3669 -86.1425 82° East 490 564 31,000 -120 Descending Chicago Center
02:06PM 43.3775 -85.9492 86° East 504 580 30,900 -1,260 Descending Chicago Center
02:07PM 43.3389 -85.7281 103° East 492 566 28,500 -2,160 Descending Chicago Center
02:08PM 43.3064 -85.5456 104° East 489 563 26,500 -1,980 Descending Chicago Center
02:09PM 43.2742 -85.3628 104° East 479 551 24,500 -1,740 Descending Cleveland Center
02:10PM 43.2414 -85.1950 105° East 473 544 23,000 -780 Descending Cleveland Center
02:11PM 43.2125 -85.0303 103° East 455 524 23,000  Level Cleveland Center
02:12PM 43.1792 -84.8656 105° East 455 524 23,000 -480 Level Cleveland Center
02:13PM 43.1528 -84.7242 104° East 422 486 22,100 -960 Descending Cleveland Center
02:14PM 43.1264 -84.5858 105° East 390 449 21,100 -1,020 Descending Cleveland Center
02:15PM 43.0997 -84.4506 105° East 376 433 20,100 -960 Descending Cleveland Center
02:16PM 43.0767 -84.3297 105° East 366 421 19,200 -1,080 Descending Cleveland Center
02:17PM 43.0517 -84.1975 104° East 366 421 18,000 -1,380 Descending Cleveland Center
02:18PM 43.0267 -84.0653 104° East 361 415 16,500 -1,740 Descending Cleveland Center
02:18PM 43.0178 -84.0164 104° East 347 399 15,800 -1,500 Descending Cleveland Center
02:19PM 43.0033 -83.9419 105° East 349 402 15,000 -1,500 Descending Cleveland Center
02:19PM 42.9889 -83.8617 104° East 335 386 14,000 -1,500 Descending Cleveland Center
02:20PM 42.9692 -83.8150 120° Southeast 338 389 13,500 -1,500 Descending Cleveland Center
02:20PM 42.9261 -83.7903 157° South 292 336 12,500 -1,440 Descending Cleveland Center
02:21PM 42.8914 -83.7658 153° Southeast 285 328 12,100 -540 Descending Cleveland Center
02:21PM 42.8525 -83.7439 158° South 294 338 12,000 -120 Descending Cleveland Center
02:22PM 42.8175 -83.7253 159° South 285 328 12,000 -240 Level Cleveland Center
02:22PM 42.7806 -83.7064 159° South 248 285 11,800 -540 Descending Cleveland Center
02:23PM 42.7539 -83.6881 153° Southeast 277 319 11,500 -1,020 Descending Cleveland Center
02:23PM 42.7128 -83.6633 156° South 240 276 10,700 -1,020 Descending Cleveland Center
02:24PM 42.6903 -83.6539 163° South 259 298 10,500 -1,020 Descending Cleveland Center
02:24PM 42.6531 -83.6436 169° South 245 282 9,800 -1,020 Descending Cleveland Center
02:25PM 42.6261 -83.6308 161° South 248 285 9,500 -1,200 Descending Cleveland Center
02:25PM 42.5850 -83.6147 164° South 242 278 8,600 -1,320 Descending Cleveland Center
02:26PM 42.5622 -83.6081 168° South 243 280 8,200 -1,500 Descending Cleveland Center
02:26PM 42.5300 -83.5669 137° Southeast 256 295 7,100 -1,500 Descending Cleveland Center
02:27PM 42.5117 -83.5436 137° Southeast 238 274 6,700 -900 Descending Cleveland Center
02:27PM 42.4775 -83.4914 132° Southeast 225 259 6,100 -420 Descending Cleveland Center
02:28PM 42.4961 -83.4189 71° East 239 275 6,000 -480 Descending Cleveland Center
02:29PM 42.5433 -83.3592 43° Northeast 232 267 5,200 -900 Descending Cleveland Center
02:30PM 42.5722 -83.2869 61° Northeast 228 262 4,200 -600 Descending Cleveland Center
02:32PM 42.5492 -83.2044 111° Southeast 207 238 4,000 -60 Descending Cleveland Center
02:33PM 42.4997 -83.1797 160° South 186 214 4,100  Climbing Cleveland Center
02:34PM 42.4514 -83.2003 197° South 182 209 4,100  Level Cleveland Center
02:35PM 42.4108 -83.2322 210° Southwest 173 199 4,100 -60 Level Cleveland Center
02:36PM 42.3706 -83.2617 208° Southwest 173 199 4,000 -120 Descending Cleveland Center